sensor_id;sensor_type;location;lat;lon;timestamp;P1;durP1;ratioP1;P2;durP2;ratioP2
60873;SDS011;46715;40.642;-7.920;2022-12-20T00:00:04;9.00;;;6.93;;
60873;SDS011;46715;40.642;-7.920;2022-12-20T00:02:05;8.15;;;6.18;;
60873;SDS011;46715;40.642;-7.920;2022-12-20T00:04:06;8.33;;;6.43;;
60873;SDS011;46715;40.642;-7.920;2022-12-20T00:06:09;7.68;;;5.93;;
60873;SDS011;46715;40.642;-7.920;2022-12-20T00:08:10;9.82;;;6.38;;
60873;SDS011;46715;40.642;-7.920;2022-12-20T00:10:11;9.07;;;6.25;;
60873;SDS011;46715;40.642;-7.920;2022-12-20T00:12:12;7.82;;;5.60;;
60873;SDS011;46715;40.642;-7.920;2022-12-20T00:14:13;8.40;;;5.47;;
60873;SDS011;46715;40.642;-7.920;2022-12-20T00:16:18;7.30;;;6.10;;
60873;SDS011;46715;40.642;-7.920;2022-12-20T00:18:21;9.48;;;6.05;;
60873;SDS011;46715;40.642;-7.920;2022-12-20T00:20:22;6.93;;;4.97;;
60873;SDS011;46715;40.642;-7.920;2022-12-20T00:22:23;6.93;;;5.20;;
60873;SDS011;46715;40.642;-7.920;2022-12-20T00:24:24;8.57;;;5.07;;
60873;SDS011;46715;40.642;-7.920;2022-12-20T00:26:28;6.97;;;4.43;;
60873;SDS011;46715;40.642;-7.920;2022-12-20T00:28:31;7.95;;;5.25;;
60873;SDS011;46715;40.642;-7.920;2022-12-20T00:30:34;5.70;;;4.53;;
60873;SDS011;46715;40.642;-7.920;2022-12-20T00:32:35;5.13;;;4.38;;
60873;SDS011;46715;40.642;-7.920;2022-12-20T00:34:36;7.50;;;5.43;;
60873;SDS011;46715;40.642;-7.920;2022-12-20T00:36:38;6.10;;;4.53;;
60873;SDS011;46715;40.642;-7.920;2022-12-20T00:38:43;8.27;;;5.10;;
60873;SDS011;46715;40.642;-7.920;2022-12-20T00:40:45;8.32;;;5.75;;
60873;SDS011;46715;40.642;-7.920;2022-12-20T00:42:46;8.70;;;5.40;;
60873;SDS011;46715;40.642;-7.920;2022-12-20T00:44:47;8.50;;;5.47;;
60873;SDS011;46715;40.642;-7.920;2022-12-20T00:46:48;6.93;;;4.82;;
60873;SDS011;46715;40.642;-7.920;2022-12-20T00:48:49;9.30;;;5.43;;
60873;SDS011;46715;40.642;-7.920;2022-12-20T00:50:50;7.38;;;5.88;;
60873;SDS011;46715;40.642;-7.920;2022-12-20T00:52:52;11.00;;;4.82;;
60873;SDS011;46715;40.642;-7.920;2022-12-20T00:54:53;7.00;;;5.00;;
60873;SDS011;46715;40.642;-7.920;2022-12-20T00:56:53;9.73;;;4.93;;
60873;SDS011;46715;40.642;-7.920;2022-12-20T00:58:56;6.03;;;4.97;;
60873;SDS011;46715;40.642;-7.920;2022-12-20T01:00:59;5.70;;;4.80;;
60873;SDS011;46715;40.642;-7.920;2022-12-20T01:03:00;8.77;;;5.43;;
60873;SDS011;46715;40.642;-7.920;2022-12-20T01:05:01;8.68;;;5.45;;
60873;SDS011;46715;40.642;-7.920;2022-12-20T01:07:04;8.00;;;5.75;;
60873;SDS011;46715;40.642;-7.920;2022-12-20T01:09:05;6.80;;;5.73;;
60873;SDS011;46715;40.642;-7.920;2022-12-20T01:13:09;6.65;;;4.75;;
60873;SDS011;46715;40.642;-7.920;2022-12-20T01:15:10;6.23;;;4.77;;
60873;SDS011;46715;40.642;-7.920;2022-12-20T01:17:11;7.07;;;3.90;;
60873;SDS011;46715;40.642;-7.920;2022-12-20T01:19:12;5.80;;;3.07;;
60873;SDS011;46715;40.642;-7.920;2022-12-20T01:21:16;4.20;;;2.97;;
60873;SDS011;46715;40.642;-7.920;2022-12-20T01:23:18;4.07;;;3.35;;
60873;SDS011;46715;40.642;-7.920;2022-12-20T01:25:19;3.87;;;3.03;;
60873;SDS011;46715;40.642;-7.920;2022-12-20T01:27:20;4.77;;;3.70;;
60873;SDS011;46715;40.642;-7.920;2022-12-20T01:29:21;5.65;;;3.75;;
60873;SDS011;46715;40.642;-7.920;2022-12-20T01:31:22;5.17;;;3.33;;
60873;SDS011;46715;40.642;-7.920;2022-12-20T01:33:24;6.65;;;3.60;;
60873;SDS011;46715;40.642;-7.920;2022-12-20T01:35:26;4.72;;;3.35;;
60873;SDS011;46715;40.642;-7.920;2022-12-20T01:37:27;6.15;;;3.90;;
60873;SDS011;46715;40.642;-7.920;2022-12-20T01:39:28;5.20;;;4.00;;
60873;SDS011;46715;40.642;-7.920;2022-12-20T01:41:35;5.03;;;3.88;;
60873;SDS011;46715;40.642;-7.920;2022-12-20T01:45:57;7.53;;;4.10;;
60873;SDS011;46715;40.642;-7.920;2022-12-20T01:47:58;7.40;;;4.70;;
60873;SDS011;46715;40.642;-7.920;2022-12-20T01:50:00;6.05;;;4.00;;
60873;SDS011;46715;40.642;-7.920;2022-12-20T01:52:08;6.38;;;4.80;;
60873;SDS011;46715;40.642;-7.920;2022-12-20T01:54:18;6.47;;;4.40;;
60873;SDS011;46715;40.642;-7.920;2022-12-20T01:56:23;8.15;;;4.25;;
60873;SDS011;46715;40.642;-7.920;2022-12-20T01:58:24;7.63;;;4.63;;
60873;SDS011;46715;40.642;-7.920;2022-12-20T02:00:26;8.07;;;4.13;;
60873;SDS011;46715;40.642;-7.920;2022-12-20T02:02:27;6.55;;;4.43;;
60873;SDS011;46715;40.642;-7.920;2022-12-20T02:04:28;8.87;;;4.80;;
60873;SDS011;46715;40.642;-7.920;2022-12-20T02:06:29;6.50;;;4.60;;
60873;SDS011;46715;40.642;-7.920;2022-12-20T02:08:33;5.88;;;4.38;;
60873;SDS011;46715;40.642;-7.920;2022-12-20T02:12:44;7.22;;;4.32;;
60873;SDS011;46715;40.642;-7.920;2022-12-20T02:15:10;4.60;;;3.70;;
60873;SDS011;46715;40.642;-7.920;2022-12-20T02:17:38;7.82;;;3.53;;
60873;SDS011;46715;40.642;-7.920;2022-12-20T02:32:24;3.53;;;2.85;;
60873;SDS011;46715;40.642;-7.920;2022-12-20T02:34:29;6.15;;;3.05;;
60873;SDS011;46715;40.642;-7.920;2022-12-20T02:36:32;5.00;;;2.92;;
60873;SDS011;46715;40.642;-7.920;2022-12-20T02:38:34;3.33;;;2.27;;
60873;SDS011;46715;40.642;-7.920;2022-12-20T02:40:38;3.25;;;2.10;;
60873;SDS011;46715;40.642;-7.920;2022-12-20T02:42:41;2.95;;;2.10;;
60873;SDS011;46715;40.642;-7.920;2022-12-20T02:44:43;2.40;;;1.95;;
60873;SDS011;46715;40.642;-7.920;2022-12-20T02:47:09;2.97;;;1.58;;
60873;SDS011;46715;40.642;-7.920;2022-12-20T02:49:17;3.78;;;1.70;;
60873;SDS011;46715;40.642;-7.920;2022-12-20T02:51:21;3.10;;;1.52;;
60873;SDS011;46715;40.642;-7.920;2022-12-20T02:53:23;3.78;;;1.88;;
60873;SDS011;46715;40.642;-7.920;2022-12-20T02:55:29;2.38;;;1.63;;
60873;SDS011;46715;40.642;-7.920;2022-12-20T02:57:57;1.70;;;1.48;;
60873;SDS011;46715;40.642;-7.920;2022-12-20T03:02:07;3.10;;;1.63;;
60873;SDS011;46715;40.642;-7.920;2022-12-20T03:04:09;2.17;;;1.35;;
60873;SDS011;46715;40.642;-7.920;2022-12-20T03:06:12;2.70;;;1.63;;
60873;SDS011;46715;40.642;-7.920;2022-12-20T03:08:13;2.00;;;1.30;;
60873;SDS011;46715;40.642;-7.920;2022-12-20T03:10:14;1.75;;;1.30;;
60873;SDS011;46715;40.642;-7.920;2022-12-20T03:12:16;2.55;;;1.30;;
60873;SDS011;46715;40.642;-7.920;2022-12-20T03:14:17;1.60;;;1.10;;
60873;SDS011;46715;40.642;-7.920;2022-12-20T03:18:19;1.50;;;1.20;;
60873;SDS011;46715;40.642;-7.920;2022-12-20T03:20:20;1.80;;;1.30;;
60873;SDS011;46715;40.642;-7.920;2022-12-20T03:22:21;2.07;;;1.30;;
60873;SDS011;46715;40.642;-7.920;2022-12-20T03:24:22;1.83;;;1.10;;
60873;SDS011;46715;40.642;-7.920;2022-12-20T03:26:25;1.92;;;1.10;;
60873;SDS011;46715;40.642;-7.920;2022-12-20T03:28:30;3.15;;;0.90;;
60873;SDS011;46715;40.642;-7.920;2022-12-20T03:30:31;1.83;;;1.00;;
60873;SDS011;46715;40.642;-7.920;2022-12-20T03:32:32;1.55;;;1.00;;
60873;SDS011;46715;40.642;-7.920;2022-12-20T03:34:33;2.07;;;0.90;;
60873;SDS011;46715;40.642;-7.920;2022-12-20T03:36:35;1.50;;;0.80;;
60873;SDS011;46715;40.642;-7.920;2022-12-20T03:38:38;1.98;;;0.80;;
60873;SDS011;46715;40.642;-7.920;2022-12-20T03:40:41;1.92;;;0.70;;
60873;SDS011;46715;40.642;-7.920;2022-12-20T03:42:42;1.00;;;0.75;;
60873;SDS011;46715;40.642;-7.920;2022-12-20T03:44:43;1.65;;;0.90;;
60873;SDS011;46715;40.642;-7.920;2022-12-20T03:46:44;0.50;;;0.50;;
60873;SDS011;46715;40.642;-7.920;2022-12-20T03:48:45;1.40;;;0.90;;
60873;SDS011;46715;40.642;-7.920;2022-12-20T03:50:46;1.20;;;0.93;;
60873;SDS011;46715;40.642;-7.920;2022-12-20T03:52:48;3.97;;;0.73;;
60873;SDS011;46715;40.642;-7.920;2022-12-20T03:54:49;0.90;;;0.63;;
60873;SDS011;46715;40.642;-7.920;2022-12-20T03:56:53;4.25;;;0.80;;
60873;SDS011;46715;40.642;-7.920;2022-12-20T03:58:55;1.33;;;0.70;;
60873;SDS011;46715;40.642;-7.920;2022-12-20T04:00:56;0.50;;;0.50;;
60873;SDS011;46715;40.642;-7.920;2022-12-20T04:03:13;0.63;;;0.57;;
60873;SDS011;46715;40.642;-7.920;2022-12-20T04:05:14;0.93;;;0.70;;
60873;SDS011;46715;40.642;-7.920;2022-12-20T04:07:16;1.27;;;0.70;;
60873;SDS011;46715;40.642;-7.920;2022-12-20T04:09:20;1.20;;;0.68;;
60873;SDS011;46715;40.642;-7.920;2022-12-20T04:11:25;1.20;;;0.70;;
60873;SDS011;46715;40.642;-7.920;2022-12-20T04:13:37;0.52;;;0.52;;
60873;SDS011;46715;40.642;-7.920;2022-12-20T04:15:38;2.58;;;0.77;;
60873;SDS011;46715;40.642;-7.920;2022-12-20T04:17:41;1.63;;;0.63;;
60873;SDS011;46715;40.642;-7.920;2022-12-20T04:19:42;0.90;;;0.70;;
60873;SDS011;46715;40.642;-7.920;2022-12-20T04:21:43;2.63;;;0.70;;
60873;SDS011;46715;40.642;-7.920;2022-12-20T04:23:46;1.13;;;0.65;;
60873;SDS011;46715;40.642;-7.920;2022-12-20T04:25:46;1.70;;;1.00;;
60873;SDS011;46715;40.642;-7.920;2022-12-20T04:27:49;0.85;;;0.77;;
60873;SDS011;46715;40.642;-7.920;2022-12-20T04:29:50;3.53;;;0.80;;
60873;SDS011;46715;40.642;-7.920;2022-12-20T04:31:53;6.53;;;0.98;;
60873;SDS011;46715;40.642;-7.920;2022-12-20T04:33:56;1.52;;;0.55;;
60873;SDS011;46715;40.642;-7.920;2022-12-20T04:35:57;1.88;;;0.77;;
60873;SDS011;46715;40.642;-7.920;2022-12-20T04:37:58;3.17;;;0.70;;
60873;SDS011;46715;40.642;-7.920;2022-12-20T04:39:59;6.60;;;0.70;;
60873;SDS011;46715;40.642;-7.920;2022-12-20T04:42:16;1.70;;;0.70;;
60873;SDS011;46715;40.642;-7.920;2022-12-20T04:44:17;0.83;;;0.60;;
60873;SDS011;46715;40.642;-7.920;2022-12-20T04:46:18;4.30;;;0.70;;
60873;SDS011;46715;40.642;-7.920;2022-12-20T04:50:20;2.78;;;0.75;;
60873;SDS011;46715;40.642;-7.920;2022-12-20T04:52:21;2.80;;;0.70;;
60873;SDS011;46715;40.642;-7.920;2022-12-20T04:54:41;2.97;;;0.80;;
60873;SDS011;46715;40.642;-7.920;2022-12-20T04:56:49;3.60;;;0.70;;
60873;SDS011;46715;40.642;-7.920;2022-12-20T04:58:54;1.83;;;0.77;;
60873;SDS011;46715;40.642;-7.920;2022-12-20T05:00:58;1.63;;;0.70;;
60873;SDS011;46715;40.642;-7.920;2022-12-20T05:03:03;8.38;;;1.10;;
60873;SDS011;46715;40.642;-7.920;2022-12-20T05:05:04;2.10;;;1.00;;
60873;SDS011;46715;40.642;-7.920;2022-12-20T05:07:10;4.55;;;1.00;;
60873;SDS011;46715;40.642;-7.920;2022-12-20T05:09:14;1.00;;;0.80;;
60873;SDS011;46715;40.642;-7.920;2022-12-20T05:11:15;2.13;;;0.90;;
60873;SDS011;46715;40.642;-7.920;2022-12-20T05:13:16;3.37;;;1.67;;
60873;SDS011;46715;40.642;-7.920;2022-12-20T05:15:18;2.58;;;1.00;;
60873;SDS011;46715;40.642;-7.920;2022-12-20T05:17:19;3.00;;;1.30;;
60873;SDS011;46715;40.642;-7.920;2022-12-20T05:19:20;5.93;;;1.70;;
60873;SDS011;46715;40.642;-7.920;2022-12-20T05:21:21;2.40;;;1.40;;
60873;SDS011;46715;40.642;-7.920;2022-12-20T05:23:42;5.65;;;1.58;;
60873;SDS011;46715;40.642;-7.920;2022-12-20T05:26:03;2.08;;;1.20;;
60873;SDS011;46715;40.642;-7.920;2022-12-20T05:28:17;4.80;;;1.80;;
60873;SDS011;46715;40.642;-7.920;2022-12-20T05:30:18;6.57;;;1.63;;
60873;SDS011;46715;40.642;-7.920;2022-12-20T05:32:22;5.53;;;2.17;;
60873;SDS011;46715;40.642;-7.920;2022-12-20T05:34:25;5.03;;;2.00;;
60873;SDS011;46715;40.642;-7.920;2022-12-20T05:36:27;6.10;;;2.22;;
60873;SDS011;46715;40.642;-7.920;2022-12-20T05:38:30;5.93;;;2.55;;
60873;SDS011;46715;40.642;-7.920;2022-12-20T05:42:33;6.15;;;2.35;;
60873;SDS011;46715;40.642;-7.920;2022-12-20T05:44:34;3.80;;;2.47;;
60873;SDS011;46715;40.642;-7.920;2022-12-20T05:46:35;5.33;;;2.00;;
60873;SDS011;46715;40.642;-7.920;2022-12-20T05:48:41;6.15;;;2.47;;
60873;SDS011;46715;40.642;-7.920;2022-12-20T05:50:43;6.40;;;2.13;;
60873;SDS011;46715;40.642;-7.920;2022-12-20T05:53:05;7.15;;;2.25;;
60873;SDS011;46715;40.642;-7.920;2022-12-20T05:55:07;5.97;;;2.17;;
60873;SDS011;46715;40.642;-7.920;2022-12-20T05:57:11;7.13;;;2.03;;
60873;SDS011;46715;40.642;-7.920;2022-12-20T05:59:15;5.13;;;1.90;;
60873;SDS011;46715;40.642;-7.920;2022-12-20T06:01:18;3.42;;;2.10;;
60873;SDS011;46715;40.642;-7.920;2022-12-20T06:03:19;5.07;;;1.92;;
60873;SDS011;46715;40.642;-7.920;2022-12-20T06:05:23;5.07;;;1.80;;
60873;SDS011;46715;40.642;-7.920;2022-12-20T06:07:24;6.22;;;1.80;;
60873;SDS011;46715;40.642;-7.920;2022-12-20T06:09:33;3.75;;;1.80;;
60873;SDS011;46715;40.642;-7.920;2022-12-20T06:11:39;3.17;;;1.52;;
60873;SDS011;46715;40.642;-7.920;2022-12-20T06:13:45;4.93;;;1.88;;
60873;SDS011;46715;40.642;-7.920;2022-12-20T06:15:46;3.27;;;1.60;;
60873;SDS011;46715;40.642;-7.920;2022-12-20T06:17:47;3.83;;;1.73;;
60873;SDS011;46715;40.642;-7.920;2022-12-20T06:19:48;3.67;;;1.70;;
60873;SDS011;46715;40.642;-7.920;2022-12-20T06:21:50;8.95;;;2.05;;
60873;SDS011;46715;40.642;-7.920;2022-12-20T06:23:58;5.03;;;2.00;;
60873;SDS011;46715;40.642;-7.920;2022-12-20T06:28:04;10.45;;;2.35;;
60873;SDS011;46715;40.642;-7.920;2022-12-20T06:30:07;4.47;;;1.83;;
60873;SDS011;46715;40.642;-7.920;2022-12-20T06:32:22;4.25;;;1.90;;
60873;SDS011;46715;40.642;-7.920;2022-12-20T06:34:24;4.50;;;1.77;;
60873;SDS011;46715;40.642;-7.920;2022-12-20T06:36:25;5.95;;;1.92;;
60873;SDS011;46715;40.642;-7.920;2022-12-20T06:38:26;4.63;;;2.00;;
60873;SDS011;46715;40.642;-7.920;2022-12-20T06:42:33;6.50;;;2.20;;
60873;SDS011;46715;40.642;-7.920;2022-12-20T06:44:33;6.00;;;2.00;;
60873;SDS011;46715;40.642;-7.920;2022-12-20T06:46:35;6.47;;;1.80;;
60873;SDS011;46715;40.642;-7.920;2022-12-20T06:48:36;8.30;;;1.73;;
60873;SDS011;46715;40.642;-7.920;2022-12-20T06:50:39;3.50;;;1.42;;
60873;SDS011;46715;40.642;-7.920;2022-12-20T06:52:40;2.42;;;1.63;;
60873;SDS011;46715;40.642;-7.920;2022-12-20T06:54:41;4.87;;;1.67;;
60873;SDS011;46715;40.642;-7.920;2022-12-20T06:56:41;3.67;;;1.23;;
60873;SDS011;46715;40.642;-7.920;2022-12-20T06:58:45;3.38;;;1.52;;
60873;SDS011;46715;40.642;-7.920;2022-12-20T07:02:47;3.88;;;1.50;;
60873;SDS011;46715;40.642;-7.920;2022-12-20T07:04:48;3.57;;;1.70;;
60873;SDS011;46715;40.642;-7.920;2022-12-20T07:06:48;4.27;;;1.90;;
60873;SDS011;46715;40.642;-7.920;2022-12-20T07:08:49;5.97;;;1.60;;
60873;SDS011;46715;40.642;-7.920;2022-12-20T07:10:50;7.20;;;1.80;;
60873;SDS011;46715;40.642;-7.920;2022-12-20T07:12:51;4.53;;;1.50;;
60873;SDS011;46715;40.642;-7.920;2022-12-20T07:14:55;4.68;;;1.52;;
60873;SDS011;46715;40.642;-7.920;2022-12-20T07:16:55;4.87;;;1.73;;
60873;SDS011;46715;40.642;-7.920;2022-12-20T07:19:00;3.55;;;1.70;;
60873;SDS011;46715;40.642;-7.920;2022-12-20T07:21:01;1.95;;;1.25;;
60873;SDS011;46715;40.642;-7.920;2022-12-20T07:23:04;3.05;;;1.10;;
60873;SDS011;46715;40.642;-7.920;2022-12-20T07:25:05;5.10;;;1.57;;
60873;SDS011;46715;40.642;-7.920;2022-12-20T07:27:06;1.83;;;1.20;;
60873;SDS011;46715;40.642;-7.920;2022-12-20T07:29:07;3.13;;;1.20;;
60873;SDS011;46715;40.642;-7.920;2022-12-20T07:31:08;2.23;;;1.10;;
60873;SDS011;46715;40.642;-7.920;2022-12-20T07:33:09;5.90;;;1.40;;
60873;SDS011;46715;40.642;-7.920;2022-12-20T07:35:10;4.93;;;1.70;;
60873;SDS011;46715;40.642;-7.920;2022-12-20T07:37:12;3.72;;;1.33;;
60873;SDS011;46715;40.642;-7.920;2022-12-20T07:39:13;4.85;;;1.60;;
60873;SDS011;46715;40.642;-7.920;2022-12-20T07:41:14;5.07;;;1.50;;
60873;SDS011;46715;40.642;-7.920;2022-12-20T07:43:17;5.95;;;1.33;;
60873;SDS011;46715;40.642;-7.920;2022-12-20T07:45:18;1.47;;;0.90;;
60873;SDS011;46715;40.642;-7.920;2022-12-20T07:47:19;4.85;;;0.95;;
60873;SDS011;46715;40.642;-7.920;2022-12-20T07:49:19;2.10;;;0.80;;
60873;SDS011;46715;40.642;-7.920;2022-12-20T07:53:27;3.05;;;0.82;;
60873;SDS011;46715;40.642;-7.920;2022-12-20T07:55:31;1.05;;;0.80;;
60873;SDS011;46715;40.642;-7.920;2022-12-20T07:57:52;2.10;;;0.70;;
60873;SDS011;46715;40.642;-7.920;2022-12-20T07:59:58;1.33;;;0.90;;
60873;SDS011;46715;40.642;-7.920;2022-12-20T08:02:01;1.90;;;1.15;;
60873;SDS011;46715;40.642;-7.920;2022-12-20T08:04:04;0.50;;;0.50;;
60873;SDS011;46715;40.642;-7.920;2022-12-20T08:06:08;1.95;;;0.70;;
60873;SDS011;46715;40.642;-7.920;2022-12-20T08:08:10;1.27;;;0.70;;
60873;SDS011;46715;40.642;-7.920;2022-12-20T08:10:11;1.13;;;0.80;;
60873;SDS011;46715;40.642;-7.920;2022-12-20T08:12:16;1.25;;;0.60;;
60873;SDS011;46715;40.642;-7.920;2022-12-20T08:14:19;0.82;;;0.50;;
60873;SDS011;46715;40.642;-7.920;2022-12-20T08:16:21;0.60;;;0.50;;
60873;SDS011;46715;40.642;-7.920;2022-12-20T08:18:21;1.10;;;0.70;;
60873;SDS011;46715;40.642;-7.920;2022-12-20T08:20:23;0.73;;;0.40;;
60873;SDS011;46715;40.642;-7.920;2022-12-20T08:22:24;1.30;;;0.70;;
60873;SDS011;46715;40.642;-7.920;2022-12-20T08:24:25;2.42;;;0.60;;
60873;SDS011;46715;40.642;-7.920;2022-12-20T08:26:26;2.10;;;0.60;;
60873;SDS011;46715;40.642;-7.920;2022-12-20T08:28:27;1.05;;;0.80;;
60873;SDS011;46715;40.642;-7.920;2022-12-20T08:30:27;1.67;;;0.70;;
60873;SDS011;46715;40.642;-7.920;2022-12-20T08:34:51;3.90;;;1.00;;
60873;SDS011;46715;40.642;-7.920;2022-12-20T08:36:54;1.92;;;1.08;;
60873;SDS011;46715;40.642;-7.920;2022-12-20T08:38:55;3.27;;;1.30;;
60873;SDS011;46715;40.642;-7.920;2022-12-20T08:41:01;2.03;;;1.20;;
60873;SDS011;46715;40.642;-7.920;2022-12-20T08:43:04;2.25;;;1.10;;
60873;SDS011;46715;40.642;-7.920;2022-12-20T08:45:05;1.40;;;0.87;;
60873;SDS011;46715;40.642;-7.920;2022-12-20T08:47:06;1.65;;;0.70;;
60873;SDS011;46715;40.642;-7.920;2022-12-20T08:49:07;1.33;;;0.90;;
60873;SDS011;46715;40.642;-7.920;2022-12-20T08:51:08;1.50;;;1.10;;
60873;SDS011;46715;40.642;-7.920;2022-12-20T08:53:11;1.15;;;1.00;;
60873;SDS011;46715;40.642;-7.920;2022-12-20T08:55:12;2.77;;;1.30;;
60873;SDS011;46715;40.642;-7.920;2022-12-20T08:57:13;1.57;;;1.30;;
60873;SDS011;46715;40.642;-7.920;2022-12-20T08:59:13;1.30;;;1.10;;
60873;SDS011;46715;40.642;-7.920;2022-12-20T09:01:16;1.35;;;1.20;;
60873;SDS011;46715;40.642;-7.920;2022-12-20T09:03:21;3.25;;;1.23;;
60873;SDS011;46715;40.642;-7.920;2022-12-20T09:05:22;2.45;;;0.77;;
60873;SDS011;46715;40.642;-7.920;2022-12-20T09:07:23;0.73;;;0.50;;
60873;SDS011;46715;40.642;-7.920;2022-12-20T09:09:24;1.02;;;0.80;;
60873;SDS011;46715;40.642;-7.920;2022-12-20T09:11:25;1.95;;;0.70;;
60873;SDS011;46715;40.642;-7.920;2022-12-20T09:13:27;0.47;;;0.47;;
60873;SDS011;46715;40.642;-7.920;2022-12-20T09:15:28;3.13;;;0.80;;
60873;SDS011;46715;40.642;-7.920;2022-12-20T09:17:29;1.83;;;0.80;;
60873;SDS011;46715;40.642;-7.920;2022-12-20T09:19:30;2.63;;;0.80;;
60873;SDS011;46715;40.642;-7.920;2022-12-20T09:21:31;1.20;;;0.85;;
60873;SDS011;46715;40.642;-7.920;2022-12-20T09:23:33;3.88;;;1.05;;
60873;SDS011;46715;40.642;-7.920;2022-12-20T09:25:35;2.13;;;0.60;;
60873;SDS011;46715;40.642;-7.920;2022-12-20T09:27:36;1.00;;;0.70;;
60873;SDS011;46715;40.642;-7.920;2022-12-20T09:29:37;1.17;;;0.80;;
60873;SDS011;46715;40.642;-7.920;2022-12-20T09:34:25;1.77;;;0.73;;
60873;SDS011;46715;40.642;-7.920;2022-12-20T09:36:27;1.47;;;0.70;;
60873;SDS011;46715;40.642;-7.920;2022-12-20T09:38:30;1.30;;;0.90;;
60873;SDS011;46715;40.642;-7.920;2022-12-20T09:42:32;0.83;;;0.80;;
60873;SDS011;46715;40.642;-7.920;2022-12-20T09:44:34;2.07;;;1.30;;
60873;SDS011;46715;40.642;-7.920;2022-12-20T09:46:40;1.45;;;1.30;;
60873;SDS011;46715;40.642;-7.920;2022-12-20T09:48:41;2.35;;;1.40;;
60873;SDS011;46715;40.642;-7.920;2022-12-20T09:53:27;3.67;;;1.70;;
60873;SDS011;46715;40.642;-7.920;2022-12-20T09:56:02;3.95;;;1.88;;
60873;SDS011;46715;40.642;-7.920;2022-12-20T10:00:22;3.38;;;1.40;;
60873;SDS011;46715;40.642;-7.920;2022-12-20T10:02:24;3.05;;;1.45;;
60873;SDS011;46715;40.642;-7.920;2022-12-20T10:04:27;2.38;;;1.25;;
60873;SDS011;46715;40.642;-7.920;2022-12-20T10:09:20;3.92;;;1.50;;
60873;SDS011;46715;40.642;-7.920;2022-12-20T10:13:59;3.63;;;1.98;;
60873;SDS011;46715;40.642;-7.920;2022-12-20T10:16:41;2.63;;;1.70;;
60873;SDS011;46715;40.642;-7.920;2022-12-20T10:21:46;7.68;;;3.88;;
60873;SDS011;46715;40.642;-7.920;2022-12-20T10:24:00;7.75;;;2.80;;
60873;SDS011;46715;40.642;-7.920;2022-12-20T10:26:11;6.80;;;2.20;;
60873;SDS011;46715;40.642;-7.920;2022-12-20T10:28:14;5.25;;;2.35;;
60873;SDS011;46715;40.642;-7.920;2022-12-20T10:30:17;5.35;;;2.47;;
60873;SDS011;46715;40.642;-7.920;2022-12-20T10:32:21;8.15;;;2.90;;
60873;SDS011;46715;40.642;-7.920;2022-12-20T10:34:23;5.03;;;2.60;;
60873;SDS011;46715;40.642;-7.920;2022-12-20T10:38:28;6.70;;;2.60;;
60873;SDS011;46715;40.642;-7.920;2022-12-20T10:40:45;5.28;;;2.40;;
60873;SDS011;46715;40.642;-7.920;2022-12-20T10:42:47;6.78;;;2.70;;
60873;SDS011;46715;40.642;-7.920;2022-12-20T10:44:49;10.65;;;3.40;;
60873;SDS011;46715;40.642;-7.920;2022-12-20T10:46:54;5.60;;;2.60;;
60873;SDS011;46715;40.642;-7.920;2022-12-20T10:48:57;9.40;;;3.00;;
60873;SDS011;46715;40.642;-7.920;2022-12-20T10:51:25;7.30;;;3.10;;
60873;SDS011;46715;40.642;-7.920;2022-12-20T10:53:27;8.65;;;2.88;;
60873;SDS011;46715;40.642;-7.920;2022-12-20T10:57:36;5.05;;;2.70;;
60873;SDS011;46715;40.642;-7.920;2022-12-20T10:59:43;5.90;;;2.50;;
60873;SDS011;46715;40.642;-7.920;2022-12-20T11:01:48;8.27;;;2.80;;
60873;SDS011;46715;40.642;-7.920;2022-12-20T11:05:57;11.57;;;2.65;;
60873;SDS011;46715;40.642;-7.920;2022-12-20T11:08:20;10.38;;;3.05;;
60873;SDS011;46715;40.642;-7.920;2022-12-20T11:10:25;13.93;;;3.25;;
60873;SDS011;46715;40.642;-7.920;2022-12-20T11:12:27;6.03;;;2.50;;
60873;SDS011;46715;40.642;-7.920;2022-12-20T11:14:28;7.82;;;2.30;;
60873;SDS011;46715;40.642;-7.920;2022-12-20T11:16:38;9.77;;;2.20;;
60873;SDS011;46715;40.642;-7.920;2022-12-20T11:18:59;7.53;;;2.05;;
60873;SDS011;46715;40.642;-7.920;2022-12-20T11:21:13;5.65;;;1.83;;
60873;SDS011;46715;40.642;-7.920;2022-12-20T11:30:18;8.82;;;2.00;;
60873;SDS011;46715;40.642;-7.920;2022-12-20T11:37:35;10.02;;;3.28;;
60873;SDS011;46715;40.642;-7.920;2022-12-20T11:41:58;6.30;;;3.20;;
60873;SDS011;46715;40.642;-7.920;2022-12-20T11:44:17;7.85;;;2.63;;
60873;SDS011;46715;40.642;-7.920;2022-12-20T11:51:20;7.97;;;2.38;;
60873;SDS011;46715;40.642;-7.920;2022-12-20T11:55:31;7.20;;;2.40;;
60873;SDS011;46715;40.642;-7.920;2022-12-20T12:00:16;8.30;;;2.40;;
60873;SDS011;46715;40.642;-7.920;2022-12-20T12:02:24;4.47;;;2.42;;
60873;SDS011;46715;40.642;-7.920;2022-12-20T12:04:33;7.15;;;2.42;;
60873;SDS011;46715;40.642;-7.920;2022-12-20T12:06:41;3.78;;;2.10;;
60873;SDS011;46715;40.642;-7.920;2022-12-20T12:11:24;7.55;;;3.53;;
60873;SDS011;46715;40.642;-7.920;2022-12-20T12:13:32;6.97;;;2.83;;
60873;SDS011;46715;40.642;-7.920;2022-12-20T12:15:44;6.53;;;2.33;;
60873;SDS011;46715;40.642;-7.920;2022-12-20T12:18:00;8.50;;;2.92;;
60873;SDS011;46715;40.642;-7.920;2022-12-20T12:22:25;7.57;;;2.47;;
60873;SDS011;46715;40.642;-7.920;2022-12-20T12:24:35;8.60;;;2.88;;
60873;SDS011;46715;40.642;-7.920;2022-12-20T12:26:41;6.50;;;3.20;;
60873;SDS011;46715;40.642;-7.920;2022-12-20T12:28:42;8.23;;;2.43;;
60873;SDS011;46715;40.642;-7.920;2022-12-20T12:33:09;5.50;;;2.90;;
60873;SDS011;46715;40.642;-7.920;2022-12-20T12:40:02;6.55;;;1.80;;
60873;SDS011;46715;40.642;-7.920;2022-12-20T12:44:45;7.03;;;1.92;;
60873;SDS011;46715;40.642;-7.920;2022-12-20T12:46:53;5.20;;;2.33;;
60873;SDS011;46715;40.642;-7.920;2022-12-20T12:51:02;8.65;;;2.40;;
60873;SDS011;46715;40.642;-7.920;2022-12-20T12:53:11;5.15;;;2.03;;
60873;SDS011;46715;40.642;-7.920;2022-12-20T12:55:38;4.53;;;2.10;;
60873;SDS011;46715;40.642;-7.920;2022-12-20T12:57:58;6.30;;;2.25;;
60873;SDS011;46715;40.642;-7.920;2022-12-20T13:02:52;5.72;;;1.88;;
60873;SDS011;46715;40.642;-7.920;2022-12-20T13:09:40;4.80;;;1.90;;
60873;SDS011;46715;40.642;-7.920;2022-12-20T13:11:42;6.22;;;2.00;;
60873;SDS011;46715;40.642;-7.920;2022-12-20T13:13:43;6.32;;;1.60;;
60873;SDS011;46715;40.642;-7.920;2022-12-20T13:15:49;3.20;;;1.80;;
60873;SDS011;46715;40.642;-7.920;2022-12-20T13:20:16;4.10;;;1.90;;
60873;SDS011;46715;40.642;-7.920;2022-12-20T13:22:19;4.18;;;1.10;;
60873;SDS011;46715;40.642;-7.920;2022-12-20T13:29:25;2.95;;;1.30;;
60873;SDS011;46715;40.642;-7.920;2022-12-20T13:31:31;3.85;;;1.27;;
60873;SDS011;46715;40.642;-7.920;2022-12-20T13:35:53;2.30;;;1.30;;
60873;SDS011;46715;40.642;-7.920;2022-12-20T13:40:05;3.35;;;1.17;;
60873;SDS011;46715;40.642;-7.920;2022-12-20T13:42:36;1.88;;;1.20;;
60873;SDS011;46715;40.642;-7.920;2022-12-20T13:44:41;1.75;;;1.10;;
60873;SDS011;46715;40.642;-7.920;2022-12-20T13:50:50;3.97;;;1.30;;
60873;SDS011;46715;40.642;-7.920;2022-12-20T13:52:53;3.70;;;1.30;;
60873;SDS011;46715;40.642;-7.920;2022-12-20T13:54:56;2.95;;;1.20;;
60873;SDS011;46715;40.642;-7.920;2022-12-20T13:56:59;1.33;;;1.02;;
60873;SDS011;46715;40.642;-7.920;2022-12-20T13:59:05;1.30;;;0.88;;
60873;SDS011;46715;40.642;-7.920;2022-12-20T14:01:13;1.67;;;0.95;;
60873;SDS011;46715;40.642;-7.920;2022-12-20T14:03:24;1.83;;;1.17;;
60873;SDS011;46715;40.642;-7.920;2022-12-20T14:05:32;1.42;;;0.80;;
60873;SDS011;46715;40.642;-7.920;2022-12-20T14:07:36;1.98;;;1.30;;
60873;SDS011;46715;40.642;-7.920;2022-12-20T14:09:37;2.03;;;0.90;;
60873;SDS011;46715;40.642;-7.920;2022-12-20T14:11:45;1.70;;;1.00;;
60873;SDS011;46715;40.642;-7.920;2022-12-20T14:16:17;1.90;;;1.30;;
60873;SDS011;46715;40.642;-7.920;2022-12-20T14:18:23;2.15;;;1.60;;
60873;SDS011;46715;40.642;-7.920;2022-12-20T14:20:28;1.65;;;1.30;;
60873;SDS011;46715;40.642;-7.920;2022-12-20T14:22:32;2.22;;;1.05;;
60873;SDS011;46715;40.642;-7.920;2022-12-20T14:24:35;2.70;;;1.40;;